Latest Weather Observations for Mackay

IDQ60801

Issued at 5:32 pm EST Friday 1 July 2016 (issued every 30 minutes, with the page automatically refreshed every 10 minutes)

About weather observations | Map of weather stations | Latest weather observations for QLD | Other Formats
Station Details ID: 033119 Name: MACKAY M.O Lat: -21.12 Lon: 149.22 Height: 30.26 m
Data from the previous 72 hours. | See also: Recent months at Mackay
Date/Time
EST
Temp
°C
App
Temp
°C
Dew
Point
°C
Rel
Hum
%
Delta-T
°C
Wind Press
QNH
hPa
Press
MSL
hPa
Rain since
9am
mm
Dir  Spd
km/h
Gust
km/h
Spd
kts
Gust
kts
01/05:30pm 20.5 21.7 19.1 92 0.9 ENE 11 15 6 8 1018.6 1018.5 0.0
01/05:00pm 20.9 22.4 18.8 88 1.3 E 9 15 5 8 1018.3 1018.2 0.0
01/04:30pm 21.2 22.4 19.1 88 1.3 E 11 17 6 9 1017.9 1017.8 0.0
01/04:00pm 21.3 22.8 18.9 86 1.5 ESE 9 13 5 7 1018.0 1017.9 0.0
01/03:30pm 21.2 22.0 19.0 87 1.4 E 13 17 7 9 1017.9 1017.8 0.0
01/03:00pm 21.6 22.7 18.9 84 1.7 ESE 11 17 6 9 1017.8 1017.7 0.0
01/02:30pm 21.2 22.3 18.8 86 1.5 ESE 11 17 6 9 1017.8 1017.7 0.0
01/02:00pm 21.0 22.4 18.6 86 1.5 ESE 9 17 5 9 1018.0 1017.9 0.0
01/01:30pm 21.0 22.5 18.8 87 1.4 ESE 9 13 5 7 1018.4 1018.3 0.0
01/01:00pm 21.1 22.1 18.7 86 1.5 ESE 11 19 6 10 1018.8 1018.7 0.0
01/12:30pm 20.9 21.5 18.5 86 1.5 ESE 13 19 7 10 1019.2 1019.1 0.0
01/12:00pm 21.3 22.8 18.8 86 1.6 SE 9 15 5 8 1019.7 1019.6 0.0
01/11:30am 20.8 21.8 18.7 88 1.3 SE 11 15 6 8 1020.2 1020.1 0.0
01/11:00am 20.7 21.8 18.1 85 1.6 SE 9 15 5 8 1020.6 1020.5 0.0
01/10:30am 21.0 21.3 17.9 82 1.9 SSE 13 17 7 9 1020.8 1020.7 0.0
01/10:00am 21.1 21.4 17.9 82 2.0 S 13 19 7 10 1020.9 1020.8 0.0
01/09:30am 20.3 20.3 16.3 78 2.4 SSW 11 15 6 8 1021.0 1020.9 0.0
01/09:00am 19.2 19.3 15.6 79 2.1 SW 9 13 5 7 1021.1 1021.0 0.0
01/08:30am 17.9 17.6 15.5 86 1.4 SW 11 15 6 8 1021.0 1020.9 0.0
01/08:00am 16.6 16.5 15.0 90 0.9 SW 9 15 5 8 1020.9 1020.8 0.0
01/07:30am 15.5 14.4 14.4 93 0.6 SW 13 15 7 8 1020.5 1020.4 0.0
01/07:00am 15.3 14.5 14.1 92 0.7 WSW 11 15 6 8 1020.2 1020.1 0.0
01/06:30am 15.4 14.3 14.3 93 0.6 WSW 13 19 7 10 1019.9 1019.8 0.0
01/06:00am 15.2 14.1 14.3 94 0.5 SW 13 17 7 9 1019.6 1019.5 0.0
01/05:30am 15.2 14.2 14.5 96 0.4 WSW 13 17 7 9 1019.2 1019.1 0.0
01/05:00am 15.3 14.3 14.6 96 0.4 SW 13 17 7 9 1018.9 1018.8 0.0
01/04:30am 15.5 14.6 14.8 96 0.4 WSW 13 17 7 9 1018.8 1018.7 0.0
01/04:00am 15.7 14.9 15.0 96 0.4 WSW 13 19 7 10 1018.6 1018.5 0.0
01/03:30am 15.9 15.1 15.0 94 0.5 SW 13 19 7 10 1018.5 1018.4 0.0
01/03:00am 16.3 15.6 15.4 94 0.5 WSW 13 17 7 9 1018.5 1018.4 0.0
01/02:30am 16.6 16.4 15.7 94 0.5 WSW 11 15 6 8 1018.8 1018.7 0.0
01/02:00am 16.9 16.8 15.9 94 0.6 WSW 11 15 6 8 1019.1 1019.0 0.0
01/01:30am 17.1 16.6 15.9 93 0.7 SW 13 17 7 9 1019.5 1019.4 0.0
01/01:00am 17.2 16.7 15.8 91 0.8 SW 13 17 7 9 1019.7 1019.6 0.0
01/12:30am 17.3 16.8 15.8 91 0.9 SW 13 17 7 9 1019.7 1019.6 0.0
01/12:00am 17.4 17.3 15.9 91 0.9 WSW 11 15 6 8 1019.9 1019.8 0.0
 
Date/Time
EST
Temp
°C
App
Temp
°C
Dew
Point
°C
Rel
Hum
%
Delta-T
°C
Wind Press
QNH
hPa
Press
MSL
hPa
Rain since
9am
mm
Dir  Spd
km/h
Gust
km/h
Spd
kts
Gust
kts
30/11:30pm 17.5 18.0 16.5 94 0.6 SW 9 13 5 7 1020.2 1020.1 0.0
30/11:00pm 18.1 18.4 17.1 94 0.6 SW 11 17 6 9 1020.3 1020.2 0.0
30/10:30pm 18.5 19.4 17.5 94 0.6 S 9 11 5 6 1020.3 1020.2 0.0
30/10:00pm 18.6 19.6 17.8 95 0.5 S 9 13 5 7 1020.6 1020.5 0.0
30/09:30pm 18.7 19.8 17.9 95 0.5 S 9 13 5 7 1020.7 1020.6 0.0
30/09:00pm 18.5 19.1 17.7 95 0.5 S 11 13 6 7 1020.7 1020.6 0.0
30/08:30pm 19.2 19.4 17.7 91 0.9 SSE 13 17 7 9 1020.7 1020.6 0.0
30/08:00pm 19.1 19.7 17.8 92 0.8 SSE 11 17 6 9 1020.6 1020.5 0.0
30/07:30pm 19.2 19.8 17.7 91 0.9 SSE 11 17 6 9 1020.4 1020.3 0.0
30/07:00pm 19.7 21.0 17.6 88 1.3 SE 7 13 4 7 1020.0 1019.9 0.0
30/06:30pm 19.9 20.7 17.3 85 1.6 ESE 9 15 5 8 1019.8 1019.7 0.0
30/06:00pm 19.8 20.6 17.2 85 1.6 ESE 9 15 5 8 1019.5 1019.4 0.0
30/05:30pm 19.9 20.3 17.3 85 1.6 SE 11 20 6 11 1019.3 1019.2 0.0
30/05:00pm 20.3 20.8 17.4 83 1.8 SE 11 17 6 9 1019.3 1019.2 0.0
30/04:30pm 20.7 21.2 17.4 81 2.0 SE 11 20 6 11 1019.1 1019.0 0.0
30/04:00pm 20.7 21.1 17.3 81 2.1 SE 11 20 6 11 1018.8 1018.7 0.0
30/03:30pm 21.2 21.3 17.5 79 2.3 SE 13 20 7 11 1018.8 1018.7 0.0
30/03:00pm 21.2 21.1 16.9 76 2.6 SE 13 20 7 11 1018.8 1018.7 0.0
30/02:30pm 21.8 21.8 17.2 75 2.8 SE 13 20 7 11 1019.0 1018.9 0.0
30/02:00pm 21.3 20.8 16.9 76 2.7 SE 15 20 8 11 1019.2 1019.1 0.0
30/01:30pm 22.3 22.3 17.1 72 3.2 SSE 13 20 7 11 1019.4 1019.3 0.0
30/01:00pm 21.7 21.3 16.2 71 3.3 SE 13 24 7 13 1019.7 1019.6 0.0
30/12:30pm 21.4 20.4 15.7 70 3.4 SSE 15 24 8 13 1020.2 1020.1 0.0
30/12:00pm 22.0 21.5 16.0 68 3.6 SSE 13 20 7 11 1020.7 1020.6 0.0
30/11:30am 21.4 20.0 15.5 69 3.5 SSE 17 22 9 12 1021.0 1020.9 0.0
30/11:00am 20.8 19.5 14.8 68 3.5 SSE 15 20 8 11 1021.4 1021.3 0.0
30/10:30am 20.6 19.5 14.4 67 3.6 S 13 19 7 10 1021.8 1021.7 0.0
30/10:00am 19.6 17.9 13.6 68 3.4 SSW 15 20 8 11 1022.0 1021.9 0.0
30/09:30am 18.6 16.2 12.7 68 3.3 S 17 26 9 14 1022.1 1022.0 0.0
30/09:00am 17.9 15.9 12.7 71 2.9 SSW 15 20 8 11 1022.2 1022.1 0.0
30/08:30am 16.4 14.7 12.4 77 2.2 SSW 13 17 7 9 1022.2 1022.1 0.0
30/08:00am 14.6 12.9 12.4 87 1.2 SW 13 17 7 9 1022.0 1021.9 0.0
30/07:30am 12.9 10.9 11.6 92 0.7 SW 13 19 7 10 1021.6 1021.5 0.0
30/07:00am 12.6 10.2 11.3 92 0.7 SW 15 20 8 11 1021.3 1021.2 0.0
30/06:30am 12.5 10.5 11.4 93 0.6 SW 13 19 7 10 1021.0 1020.9 0.0
30/06:00am 12.6 10.5 11.3 92 0.7 SW 13 17 7 9 1021.0 1020.9 0.0
30/05:30am 12.2 10.1 11.1 93 0.6 SW 13 17 7 9 1020.7 1020.6 0.0
30/05:00am 12.3 9.8 11.0 92 0.7 SW 15 19 8 10 1020.7 1020.6 0.0
30/04:30am 12.5 10.0 11.0 90 0.8 SW 15 20 8 11 1020.8 1020.7 0.0
30/04:00am 12.5 10.0 11.2 92 0.7 SW 15 19 8 10 1020.9 1020.8 0.0
30/03:30am 12.4 10.3 11.1 92 0.7 SW 13 17 7 9 1020.8 1020.7 0.0
30/03:00am 12.6 10.2 11.3 92 0.7 SW 15 20 8 11 1021.0 1020.9 0.0
30/02:30am 13.0 10.5 11.1 88 1.0 SW 15 20 8 11 1021.4 1021.3 0.0
30/02:00am 13.2 10.7 11.1 87 1.1 SW 15 19 8 10 1021.7 1021.6 0.0
30/01:30am 13.1 10.6 11.0 87 1.1 SW 15 19 8 10 1022.0 1021.9 0.0
30/01:00am 13.2 11.1 11.1 87 1.1 SW 13 17 7 9 1022.4 1022.3 0.0
30/12:30am 13.5 11.0 11.2 86 1.2 SSW 15 19 8 10 1022.5 1022.4 0.0
30/12:00am 13.6 11.1 11.1 85 1.3 SW 15 19 8 10 1022.7 1022.6 0.0
 
Date/Time
EST
Temp
°C
App
Temp
°C
Dew
Point
°C
Rel
Hum
%
Delta-T
°C
Wind Press
QNH
hPa
Press
MSL
hPa
Rain since
9am
mm
Dir  Spd
km/h
Gust
km/h
Spd
kts
Gust
kts
29/11:30pm 13.4 10.9 11.1 86 1.2 SW 15 17 8 9 1022.9 1022.8 0.0
29/11:00pm 13.5 11.0 11.2 86 1.2 SSW 15 19 8 10 1023.1 1023.0 0.0
29/10:30pm 13.6 11.1 11.1 85 1.3 SW 15 17 8 9 1023.3 1023.2 0.0
29/10:00pm 13.8 10.9 10.9 83 1.5 SW 17 20 9 11 1023.6 1023.5 0.0
29/09:30pm 14.0 11.5 11.0 82 1.6 SW 15 19 8 10 1023.6 1023.5 0.0
29/09:00pm 14.6 11.6 10.8 78 2.0 SSW 17 20 9 11 1023.5 1023.4 0.0
29/08:30pm 15.2 12.3 11.1 76 2.2 SSW 17 20 9 11 1023.4 1023.3 0.0
29/08:00pm 16.5 13.4 11.5 72 2.7 S 19 24 10 13 1023.4 1023.3 0.0
29/07:30pm 16.9 14.2 11.7 71 2.8 S 17 22 9 12 1023.2 1023.1 0.0
29/07:00pm 16.8 13.8 11.8 72 2.7 S 19 26 10 14 1023.0 1022.9 0.0
29/06:30pm 17.2 14.4 12.5 74 2.6 SSE 19 28 10 15 1022.8 1022.7 0.0
29/06:00pm 17.4 15.1 12.9 75 2.5 SSE 17 26 9 14 1022.7 1022.6 0.0
29/05:30pm 17.3 15.0 13.0 76 2.4 SSE 17 26 9 14 1022.6 1022.5 0.0
29/05:00pm 17.8 15.1 13.0 73 2.7 SSE 19 30 10 16 1022.3 1022.2 0.0
29/04:30pm 18.2 15.2 12.6 70 3.1 SSE 20 32 11 17 1022.2 1022.1 0.0
29/04:00pm 18.4 15.6 12.7 69 3.2 SSE 19 26 10 14 1022.0 1021.9 0.0
29/03:30pm 18.7 15.9 12.6 67 3.4 SSE 19 28 10 15 1021.8 1021.7 0.0
29/03:00pm 18.9 15.9 12.4 66 3.6 SSE 20 32 11 17 1021.9 1021.8 0.0
29/02:30pm 19.2 16.2 12.6 65 3.7 SSE 20 32 11 17 1021.8 1021.7 0.0
29/02:00pm 19.3 16.4 12.9 66 3.6 SSE 20 30 11 16 1021.9 1021.8 0.0
29/01:30pm 18.7 15.6 12.2 66 3.6 SSE 20 33 11 18 1022.2 1022.1 0.0
29/01:00pm 18.9 15.3 11.8 63 3.9 SSE 22 33 12 18 1022.5 1022.4 0.0
29/12:30pm 18.6 15.3 11.7 64 3.8 SSE 20 32 11 17 1022.9 1022.8 0.0
29/12:00pm 18.5 14.3 11.1 62 4.0 SSE 24 39 13 21 1023.4 1023.3 0.0
29/11:30am 18.5 15.0 10.9 61 4.1 SSE 20 32 11 17 1023.8 1023.7 0.0
29/11:00am 17.4 13.1 9.3 59 4.2 SSE 22 35 12 19 1024.3 1024.2 0.0
29/10:30am 17.0 13.0 8.4 57 4.4 SSE 19 33 10 18 1024.3 1024.2 0.0
29/10:00am 16.5 12.2 7.2 54 4.6 S 19 28 10 15 1024.7 1024.6 0.0
29/09:30am 15.1 11.0 6.1 55 4.3 SSW 17 24 9 13 1024.8 1024.7 0.0
29/09:00am 13.7 9.6 4.5 54 4.2 SSW 15 24 8 13 1024.9 1024.8 0.2
29/08:30am 12.4 9.3 5.5 63 3.2 SSW 11 17 6 9 1024.9 1024.8 0.2
29/08:00am 10.8 7.9 6.3 74 2.1 SW 11 17 6 9 1024.8 1024.7 0.2
29/07:30am 9.7 6.2 5.3 74 2.0 SW 13 19 7 10 1024.6 1024.5 0.2
29/07:00am 9.2 5.7 5.4 77 1.7 SW 13 17 7 9 1024.4 1024.3 0.2
29/06:30am 11.9 6.4 4.1 59 3.5 S 22 35 12 19 1024.0 1023.9 0.2
29/06:00am 12.1 6.3 4.6 60 3.4 S 24 37 13 20 1023.7 1023.6 0.2
29/05:30am 11.6 6.9 5.0 64 3.0 S 19 30 10 16 1023.5 1023.4 0.2
29/05:00am 10.1 5.8 5.2 71 2.2 SSW 17 28 9 15 1023.4 1023.3 0.2
29/04:30am 10.4 6.0 4.8 68 2.5 SSW 17 24 9 13 1023.5 1023.4 0.2
29/04:00am 10.5 6.6 5.5 71 2.3 SSW 15 22 8 12 1023.5 1023.4 0.2
29/03:30am 11.5 6.6 4.9 64 3.0 SSW 20 28 11 15 1023.3 1023.2 0.2
29/03:00am 10.4 6.2 5.6 72 2.2 SSW 17 24 9 13 1023.6 1023.5 0.2
29/02:30am 9.9 6.1 5.7 75 1.9 SW 15 19 8 10 1023.8 1023.7 0.2
29/02:00am 9.8 6.7 5.6 75 1.9 SW 11 13 6 7 1024.0 1023.9 0.2
29/01:30am 10.2 6.7 5.4 72 2.2 SW 13 15 7 8 1024.1 1024.0 0.2
29/01:00am 11.4 8.0 4.2 61 3.2 SW 11 13 6 7 1024.3 1024.2 0.2
29/12:30am 11.7 7.6 4.1 59 3.4 SW 15 19 8 10 1024.2 1024.1 0.2
29/12:00am 11.6 6.8 4.8 63 3.1 SSW 19 20 10 11 1024.4 1024.3 0.2
 
Date/Time
EST
Temp
°C
App
Temp
°C
Dew
Point
°C
Rel
Hum
%
Delta-T
°C
Wind Press
QNH
hPa
Press
MSL
hPa
Rain since
9am
mm
Dir  Spd
km/h
Gust
km/h
Spd
kts
Gust
kts
28/11:30pm 12.0 8.0 4.7 61 3.3 SW 15 20 8 11 1024.5 1024.4 0.2
28/11:00pm 12.2 8.4 5.8 65 3.0 SSW 15 19 8 10 1024.6 1024.5 0.2
28/10:30pm 12.8 8.7 6.2 64 3.1 SSW 17 20 9 11 1024.5 1024.4 0.2
28/10:00pm 14.3 9.5 5.6 56 4.1 S 20 30 11 16 1024.4 1024.3 0.2
28/09:30pm 14.4 9.6 5.5 55 4.2 S 20 28 11 15 1024.2 1024.1 0.2
28/09:00pm 14.9 10.8 6.1 55 4.2 S 17 24 9 13 1024.2 1024.1 0.2
28/08:30pm 15.5 10.8 5.9 52 4.6 S 20 30 11 16 1024.0 1023.9 0.2
28/08:00pm 16.0 10.9 5.8 50 4.9 S 22 33 12 18 1023.7 1023.6 0.2
28/07:30pm 16.5 11.4 5.9 49 5.1 S 22 35 12 19 1023.4 1023.3 0.2
28/07:00pm 16.2 12.2 8.3 59 4.0 S 19 26 10 14 1023.1 1023.0 0.2
28/06:30pm 16.4 12.4 9.2 62 3.7 SSE 20 30 11 16 1022.6 1022.5 0.2
28/06:00pm 16.7 12.9 9.1 61 3.9 SSE 19 28 10 15 1022.2 1022.1 0.2

Other Formats:

Comma delimited format used in spreadsheet applications
http://www.bom.gov.au/fwo/IDQ60801/IDQ60801.94367.axf

JavaScript Object Notation format (JSON) in row-major order
http://www.bom.gov.au/fwo/IDQ60801/IDQ60801.94367.json